Time;durP1;ratioP1;P1;durP2;ratioP2;P2;SDS_P1;SDS_P2;PMS_P1;PMS_P2;Temp;Humidity;BMP_temperature;BMP_pressure;BME280_temperature;BME280_humidity;BME280_pressure;Samples;Min_cycle;Max_cycle;Signal;HPM_P1;HPM_P2
2021/09/11 00:02:08;;;;;;;49.77;15.48;;;;;;;10.95;100.00;100944.86;1749717;82;20979;-53
2021/09/11 00:04:35;;;;;;;40.43;13.48;;;;;;;10.91;100.00;100932.41;1749638;81;21547;-53
2021/09/11 00:07:05;;;;;;;42.48;15.15;;;;;;;10.86;100.00;100929.86;1749781;82;21000;-53
2021/09/11 00:09:31;;;;;;;46.23;15.65;;;;;;;10.81;100.00;100935.96;1721870;82;21526;-53
2021/09/11 00:11:59;;;;;;;31.45;14.40;;;;;;;10.77;100.00;100940.34;1749724;82;21517;-53
2021/09/11 00:14:27;;;;;;;37.17;14.55;;;;;;;10.73;100.00;100935.63;1749714;82;20972;-53
2021/09/11 00:16:54;;;;;;;34.67;15.13;;;;;;;10.70;100.00;100938.25;1749953;82;20968;-53
2021/09/11 00:19:22;;;;;;;36.40;15.80;;;;;;;10.68;100.00;100938.70;1749738;80;21007;-53
2021/09/11 00:21:49;;;;;;;33.35;14.38;;;;;;;10.64;100.00;100944.80;1749694;82;20979;-53
2021/09/11 00:24:15;;;;;;;34.80;15.55;;;;;;;10.62;100.00;100940.91;1743710;81;22365;-53
2021/09/11 00:26:42;;;;;;;37.33;14.85;;;;;;;10.59;100.00;100940.95;1735642;81;21454;-53
2021/09/11 00:29:08;;;;;;;37.58;16.67;;;;;;;10.56;100.00;100937.11;1735767;81;20932;-53
2021/09/11 00:31:36;;;;;;;30.43;15.83;;;;;;;10.54;100.00;100939.28;1735588;82;20972;-53
2021/09/11 00:34:02;;;;;;;32.70;16.40;;;;;;;10.52;100.00;100941.91;1735773;82;20980;-53
2021/09/11 00:36:30;;;;;;;35.85;16.82;;;;;;;10.51;100.00;100933.72;1735661;82;21321;-53
2021/09/11 00:38:57;;;;;;;26.45;17.02;;;;;;;10.50;100.00;100935.88;1735584;82;20984;-53
2021/09/11 00:41:25;;;;;;;32.28;16.57;;;;;;;10.49;100.00;100941.94;1735659;82;20961;-53
2021/09/11 00:43:52;;;;;;;26.33;16.17;;;;;;;10.45;100.00;100934.63;1735731;82;20933;-53
2021/09/11 00:46:18;;;;;;;28.75;15.65;;;;;;;10.42;100.00;100938.97;1735767;81;22604;-54
2021/09/11 00:48:45;;;;;;;33.05;16.45;;;;;;;10.39;100.00;100937.67;1735836;82;22044;-53
2021/09/11 00:51:13;;;;;;;22.87;15.63;;;;;;;10.33;100.00;100938.59;1735690;82;20956;-53
2021/09/11 00:53:39;;;;;;;35.43;15.58;;;;;;;10.29;100.00;100938.20;1735707;82;21005;-53
2021/09/11 00:56:07;;;;;;;34.15;16.02;;;;;;;10.26;100.00;100944.28;1735730;82;21136;-53
2021/09/11 00:58:35;;;;;;;64.85;16.93;;;;;;;10.27;100.00;100945.99;1735893;82;21503;-53
2021/09/11 01:01:01;;;;;;;34.55;14.95;;;;;;;10.27;100.00;100945.99;1735694;82;21149;-53
2021/09/11 01:03:28;;;;;;;30.57;16.00;;;;;;;10.27;100.00;100945.99;1735504;82;20937;-54
2021/09/11 01:05:54;;;;;;;28.07;14.90;;;;;;;10.25;100.00;100941.69;1735650;82;20989;-54
2021/09/11 01:08:21;;;;;;;24.40;15.90;;;;;;;10.24;100.00;100938.27;1735595;82;20956;-53
2021/09/11 01:10:49;;;;;;;68.10;17.27;;;;;;;10.24;100.00;100944.73;1735773;82;21026;-54
2021/09/11 01:13:15;;;;;;;80.15;19.02;;;;;;;10.22;100.00;100942.56;1736125;81;21094;-54
2021/09/11 01:15:43;;;;;;;70.25;18.15;;;;;;;10.20;100.00;100947.77;1735678;82;20996;-54
2021/09/11 01:18:10;;;;;;;211.52;28.15;;;;;;;10.19;100.00;100942.17;1736096;82;21427;-53
2021/09/11 01:20:39;;;;;;;56.30;16.48;;;;;;;10.20;100.00;100941.72;1735659;82;21527;-54
2021/09/11 01:23:07;;;;;;;56.42;15.50;;;;;;;10.18;100.00;100941.75;1735716;81;20929;-54
2021/09/11 01:25:35;;;;;;;42.58;16.48;;;;;;;10.18;100.00;100939.59;1742468;81;21007;-55
2021/09/11 01:28:02;;;;;;;62.58;17.57;;;;;;;10.18;100.00;100939.59;1743780;82;21225;-54
2021/09/11 01:30:28;;;;;;;63.90;16.73;;;;;;;10.16;100.00;100937.45;1743805;81;21470;-54
2021/09/11 01:32:55;;;;;;;39.42;16.32;;;;;;;10.17;100.00;100941.75;1743744;82;20881;-53
2021/09/11 01:35:21;;;;;;;37.80;14.43;;;;;;;10.17;100.00;100944.34;1743979;82;20961;-53
2021/09/11 01:37:47;;;;;;;27.32;14.78;;;;;;;10.17;100.00;100941.75;1743796;81;21200;-54
2021/09/11 01:40:14;;;;;;;27.17;15.10;;;;;;;10.12;100.00;100944.83;1743826;82;21486;-53
2021/09/11 01:42:40;;;;;;;36.60;14.63;;;;;;;10.09;100.00;100947.44;1714651;82;20964;-54
2021/09/11 01:45:12;;;;;;;37.70;15.08;;;;;;;10.06;100.00;100945.30;1743911;82;20921;-53
2021/09/11 01:47:40;;;;;;;83.87;19.92;;;;;;;10.02;100.00;100951.38;1743783;82;22581;-54
2021/09/11 01:50:08;;;;;;;49.85;18.23;;;;;;;9.99;100.00;100943.66;1743886;82;21025;-53
2021/09/11 01:52:36;;;;;;;61.98;17.50;;;;;;;9.98;100.00;100947.11;1743612;82;20999;-54
2021/09/11 01:55:07;;;;;;;57.43;16.82;;;;;;;9.98;100.00;100943.23;1744045;82;20924;-53
2021/09/11 01:57:36;;;;;;;98.67;18.75;;;;;;;10.02;100.00;100943.62;1743692;81;21400;-54
2021/09/11 02:00:12;;;;;;;157.20;20.88;;;;;;;10.04;100.00;100938.42;1744222;82;21578;-53
2021/09/11 02:02:39;;;;;;;91.12;17.87;;;;;;;10.05;100.00;100937.12;1743911;82;21773;-52
2021/09/11 02:05:07;;;;;;;139.37;22.52;;;;;;;10.06;100.00;100944.44;1743799;82;21533;-53
2021/09/11 02:07:33;;;;;;;54.93;16.93;;;;;;;10.06;100.00;100941.84;1714397;82;20987;-52
2021/09/11 02:10:00;;;;;;;86.45;21.05;;;;;;;10.06;100.00;100936.25;1743900;81;20985;-52
2021/09/11 02:12:27;;;;;;;114.28;22.58;;;;;;;10.06;100.00;100948.31;1743848;82;21063;-52
2021/09/11 02:14:53;;;;;;;110.60;23.75;;;;;;;10.03;100.00;100945.76;1744060;82;21062;-52
2021/09/11 02:17:20;;;;;;;95.17;21.68;;;;;;;10.00;100.00;100947.95;1743730;82;21027;-52
2021/09/11 02:19:47;;;;;;;85.40;20.77;;;;;;;9.98;100.00;100948.41;1743944;82;20936;-52
2021/09/11 02:22:14;;;;;;;66.90;19.77;;;;;;;9.97;100.00;100946.66;1744127;82;21081;-52
2021/09/11 02:24:42;;;;;;;61.55;19.52;;;;;;;9.94;100.00;100953.15;1719681;81;20817;-52
2021/09/11 02:27:09;;;;;;;80.72;21.05;;;;;;;9.92;100.00;100959.64;1754576;81;21117;-52
2021/09/11 02:29:36;;;;;;;56.95;18.57;;;;;;;9.90;100.00;100958.80;1757181;81;20881;-53
2021/09/11 02:32:04;;;;;;;35.73;16.82;;;;;;;9.88;100.00;100959.67;1757569;81;21014;-52
2021/09/11 02:34:31;;;;;;;57.67;16.80;;;;;;;9.87;100.00;100956.66;1757304;81;20861;-52
2021/09/11 02:36:58;;;;;;;49.90;17.37;;;;;;;9.86;100.00;100958.83;1757535;80;20966;-52
2021/09/11 02:39:24;;;;;;;46.68;16.87;;;;;;;9.85;100.00;100955.81;1757715;81;21082;-52
2021/09/11 02:41:51;;;;;;;81.32;17.90;;;;;;;9.84;100.00;100964.45;1757464;81;20864;-52
2021/09/11 02:44:17;;;;;;;48.05;16.42;;;;;;;9.84;100.00;100959.27;1757545;81;21014;-52
2021/09/11 02:46:43;;;;;;;63.48;16.00;;;;;;;9.89;100.00;100969.14;1757530;81;20920;-52
2021/09/11 02:49:10;;;;;;;37.17;16.50;;;;;;;9.88;100.00;100968.72;1757627;81;20920;-52
2021/09/11 02:51:37;;;;;;;37.40;16.07;;;;;;;9.88;100.00;100967.01;1757455;81;21502;-52
2021/09/11 02:54:03;;;;;;;39.63;16.90;;;;;;;9.85;100.00;100964.87;1757531;81;21462;-52
2021/09/11 02:56:30;;;;;;;35.60;16.32;;;;;;;9.83;100.00;100971.78;1757630;81;20888;-52
2021/09/11 02:58:57;;;;;;;32.38;16.00;;;;;;;9.81;100.00;100971.78;1757646;81;20971;-52
2021/09/11 03:01:25;;;;;;;40.25;16.20;;;;;;;9.80;100.00;100971.80;1757573;81;21623;-56
2021/09/11 03:03:52;;;;;;;35.00;15.35;;;;;;;9.76;100.00;100972.25;1757425;81;20967;-52
2021/09/11 03:06:18;;;;;;;38.25;15.85;;;;;;;9.70;100.00;100973.14;1757500;81;21367;-52
2021/09/11 03:08:45;;;;;;;31.90;14.43;;;;;;;9.62;100.00;100968.47;1757702;81;21583;-52
2021/09/11 03:11:13;;;;;;;29.15;14.68;;;;;;;9.55;100.00;100975.84;1757710;81;21513;-52
2021/09/11 03:13:42;;;;;;;33.45;15.72;;;;;;;9.47;100.00;100974.17;1757606;81;21073;-52
2021/09/11 03:16:10;;;;;;;31.97;15.78;;;;;;;9.39;100.00;100975.91;1757656;81;20885;-52
2021/09/11 03:18:36;;;;;;;25.40;15.13;;;;;;;9.32;100.00;100970.36;1757526;81;20980;-52
2021/09/11 03:21:03;;;;;;;24.80;15.25;;;;;;;9.28;100.00;100969.50;1758059;81;20956;-52
2021/09/11 03:23:31;;;;;;;30.27;15.53;;;;;;;9.25;100.00;100972.55;1757557;80;20928;-52
2021/09/11 03:25:59;;;;;;;22.95;15.58;;;;;;;9.24;100.00;100974.27;1751700;81;20925;-52
2021/09/11 03:28:26;;;;;;;32.70;15.85;;;;;;;9.24;100.00;100976.01;1749897;82;21137;-52
2021/09/11 03:30:53;;;;;;;38.55;15.50;;;;;;;9.24;100.00;100977.30;1749765;82;20979;-52
2021/09/11 03:33:19;;;;;;;35.68;15.63;;;;;;;9.23;100.00;100975.13;1749950;82;20964;-52
2021/09/11 03:35:46;;;;;;;32.38;16.27;;;;;;;9.27;100.00;100971.66;1749802;82;21011;-51
2021/09/11 03:38:12;;;;;;;27.60;15.45;;;;;;;9.27;100.00;100976.83;1750290;82;20919;-52
2021/09/11 03:40:38;;;;;;;37.93;16.30;;;;;;;9.28;100.00;100977.70;1749831;82;21128;-52
2021/09/11 03:43:05;;;;;;;41.40;16.12;;;;;;;9.29;100.00;100974.25;1749986;82;20964;-52
2021/09/11 03:45:32;;;;;;;29.20;15.55;;;;;;;9.32;100.00;100978.11;1749949;82;20932;-52
2021/09/11 03:47:58;;;;;;;37.10;15.80;;;;;;;9.36;100.00;100975.09;1750090;82;20931;-52
2021/09/11 03:50:26;;;;;;;36.60;15.35;;;;;;;9.43;100.00;100976.31;1749946;82;21258;-52
2021/09/11 03:52:54;;;;;;;36.13;16.57;;;;;;;9.53;100.00;100971.12;1749842;82;21056;-52
2021/09/11 03:55:22;;;;;;;35.08;16.20;;;;;;;9.59;100.00;100968.48;1749808;82;20845;-52
2021/09/11 03:57:48;;;;;;;30.68;16.20;;;;;;;9.68;100.00;100975.33;1749653;81;21072;-52
2021/09/11 04:00:15;;;;;;;28.87;16.27;;;;;;;9.77;100.00;100977.84;1750234;82;20944;-52
2021/09/11 04:02:41;;;;;;;40.17;16.60;;;;;;;9.87;100.00;100979.94;1749871;82;20933;-52
2021/09/11 04:05:10;;;;;;;44.80;19.07;;;;;;;9.96;100.00;100979.02;1747293;81;21204;-52
2021/09/11 04:07:36;;;;;;;51.53;18.05;;;;;;;10.09;100.00;100978.03;1749745;81;20917;-52
2021/09/11 04:10:04;;;;;;;49.25;17.67;;;;;;;10.23;100.00;100980.53;1750112;81;21026;-52
2021/09/11 04:12:30;;;;;;;33.00;17.23;;;;;;;10.41;100.00;100978.23;1749628;81;20900;-52
2021/09/11 04:14:57;;;;;;;36.50;16.12;;;;;;;10.65;100.00;100981.46;1750218;82;20877;-52
2021/09/11 04:17:24;;;;;;;43.58;16.15;;;;;;;10.87;100.00;100981.23;1749776;82;21136;-52
2021/09/11 04:19:52;;;;;;;32.93;16.82;;;;;;;11.02;100.00;100987.52;1722104;82;20995;-52
2021/09/11 04:22:18;;;;;;;26.87;15.03;;;;;;;11.20;100.00;100982.54;1749529;81;20968;-52
2021/09/11 04:24:45;;;;;;;30.27;15.60;;;;;;;11.41;100.00;100980.55;1749685;81;21509;-52
2021/09/11 04:27:11;;;;;;;30.80;15.95;;;;;;;11.66;100.00;100983.25;1749646;81;21387;-52
2021/09/11 04:29:38;;;;;;;28.62;16.45;;;;;;;11.94;100.00;100987.56;1749727;82;21101;-52
2021/09/11 04:32:05;;;;;;;28.50;16.10;;;;;;;12.16;100.00;100983.36;1749740;82;20980;-52
2021/09/11 04:34:32;;;;;;;28.70;16.32;;;;;;;12.38;100.00;100984.30;1722421;82;20944;-52
2021/09/11 04:36:58;;;;;;;28.17;15.60;;;;;;;12.60;100.00;100981.73;1749822;82;20940;-52
2021/09/11 04:39:26;;;;;;;27.10;14.98;;;;;;;12.82;100.00;100972.24;1749552;82;21000;-52
2021/09/11 04:41:54;;;;;;;36.88;15.63;;;;;;;12.99;100.00;100980.99;1749907;82;20960;-52
2021/09/11 04:44:21;;;;;;;31.82;15.95;;;;;;;13.10;100.00;100975.58;1750131;80;20893;-52
2021/09/11 04:46:49;;;;;;;34.73;16.93;;;;;;;13.25;100.00;100977.43;1722617;82;20944;-52
2021/09/11 04:49:16;;;;;;;35.63;16.42;;;;;;;13.33;100.00;100971.64;1749600;81;21466;-52
2021/09/11 04:51:42;;;;;;;35.20;17.12;;;;;;;13.40;100.00;100969.31;1749911;82;21529;-52
2021/09/11 04:54:08;;;;;;;33.18;16.70;;;;;;;13.45;100.00;100967.48;1749942;82;21756;-52
2021/09/11 04:56:37;;;;;;;29.57;17.12;;;;;;;13.45;100.00;100967.95;1749669;82;21000;-52
2021/09/11 04:59:03;;;;;;;26.12;17.12;;;;;;;13.42;100.00;100966.23;1749859;82;20999;-52
2021/09/11 05:01:30;;;;;;;30.08;17.45;;;;;;;13.39;100.00;100966.30;1750065;82;21048;-52
2021/09/11 05:03:57;;;;;;;28.92;17.12;;;;;;;13.37;100.00;100968.92;1698187;82;20877;-52
2021/09/11 05:06:23;;;;;;;23.87;15.95;;;;;;;13.33;100.00;100966.44;1749840;81;21094;-52
2021/09/11 05:08:51;;;;;;;26.97;16.82;;;;;;;13.27;98.36;100965.28;1749681;80;20909;-52
2021/09/11 05:11:19;;;;;;;32.93;19.02;;;;;;;13.19;97.04;100967.58;1749789;82;20973;-53
2021/09/11 05:13:47;;;;;;;35.75;17.80;;;;;;;13.17;96.36;100964.16;1722018;82;21458;-52
2021/09/11 05:16:15;;;;;;;30.23;17.75;;;;;;;13.18;95.92;100961.97;1749799;82;20944;-52
2021/09/11 05:18:42;;;;;;;26.77;16.93;;;;;;;13.21;95.57;100965.80;1749692;82;21063;-52
2021/09/11 05:21:10;;;;;;;32.10;18.82;;;;;;;13.26;95.13;100959.64;1749821;82;21038;-52
2021/09/11 05:23:38;;;;;;;25.55;17.73;;;;;;;13.26;94.46;100964.84;1749796;82;21149;-52
2021/09/11 05:26:05;;;;;;;28.77;17.92;;;;;;;13.29;93.64;100963.50;1749763;82;20984;-52
2021/09/11 05:28:31;;;;;;;29.30;16.85;;;;;;;13.32;93.07;100964.73;1749680;82;20904;-52
2021/09/11 05:31:00;;;;;;;32.67;18.77;;;;;;;13.39;92.48;100968.90;1749855;82;21347;-52
2021/09/11 05:33:26;;;;;;;26.20;16.48;;;;;;;13.45;92.17;100962.28;1749790;82;21402;-52
2021/09/11 05:35:53;;;;;;;29.67;17.20;;;;;;;13.54;91.95;100964.29;1750053;82;21498;-52
2021/09/11 05:38:19;;;;;;;33.53;17.25;;;;;;;13.62;91.79;100957.16;1749747;82;20889;-52
2021/09/11 05:40:46;;;;;;;33.98;17.27;;;;;;;13.70;91.06;100966.09;1749660;82;20905;-52
2021/09/11 05:43:12;;;;;;;26.33;17.77;;;;;;;13.79;91.17;100961.95;1749763;81;21234;-52
2021/09/11 05:45:40;;;;;;;31.68;17.65;;;;;;;13.86;90.93;100963.98;1749688;82;21719;-52
2021/09/11 05:48:06;;;;;;;29.50;17.35;;;;;;;13.92;91.08;100962.52;1749810;82;21012;-53
2021/09/11 05:50:33;;;;;;;29.85;17.12;;;;;;;14.00;90.38;100963.17;1749691;82;20991;-52
2021/09/11 05:53:01;;;;;;;27.20;16.90;;;;;;;14.10;90.05;100959.90;1749713;82;20987;-52
2021/09/11 05:55:27;;;;;;;23.40;16.45;;;;;;;14.21;89.84;100961.80;1722092;82;21062;-52
2021/09/11 05:57:54;;;;;;;34.80;17.20;;;;;;;14.33;89.25;100966.27;1722100;82;20901;-52
2021/09/11 06:00:21;;;;;;;26.55;17.62;;;;;;;14.46;89.03;100966.80;1722060;82;20979;-52
2021/09/11 06:02:47;;;;;;;28.95;17.65;;;;;;;14.58;88.41;100970.83;1749967;80;20996;-52
2021/09/11 06:05:13;;;;;;;22.95;15.95;;;;;;;14.71;88.46;100970.08;1750081;82;20916;-52
2021/09/11 06:07:42;;;;;;;22.55;15.40;;;;;;;14.84;87.69;100969.29;1749668;82;20877;-52
2021/09/11 06:10:10;;;;;;;25.57;17.15;;;;;;;14.97;86.77;100972.41;1749808;82;20968;-52
2021/09/11 06:12:37;;;;;;;21.95;16.23;;;;;;;15.09;85.72;100974.67;1698039;82;21549;-53
2021/09/11 06:15:06;;;;;;;29.15;16.15;;;;;;;15.23;86.00;100969.05;1749689;82;20975;-52
2021/09/11 06:17:33;;;;;;;27.02;15.40;;;;;;;15.35;85.01;100978.26;1749543;82;21406;-52
2021/09/11 06:20:00;;;;;;;21.55;14.93;;;;;;;15.48;84.39;100973.52;1698374;82;21415;-52
2021/09/11 06:22:28;;;;;;;35.60;15.72;;;;;;;15.59;84.15;100970.12;1749708;80;21518;-52
2021/09/11 06:24:54;;;;;;;24.12;15.38;;;;;;;15.71;84.17;100971.48;1749653;82;20944;-52
2021/09/11 06:27:21;;;;;;;20.95;15.48;;;;;;;15.83;84.01;100974.62;1749603;81;20968;-53
2021/09/11 06:29:48;;;;;;;27.15;15.75;;;;;;;15.93;83.39;100977.36;1749391;82;20971;-52
2021/09/11 06:32:14;;;;;;;53.78;15.90;;;;;;;16.06;83.31;100976.06;1749725;82;21122;-52
2021/09/11 06:34:40;;;;;;;45.78;16.02;;;;;;;16.21;83.53;100972.08;1749761;82;21410;-52
2021/09/11 06:37:07;;;;;;;39.03;15.35;;;;;;;16.35;83.52;100971.61;1750133;82;20985;-52
2021/09/11 06:41:54;;;;;;;30.55;14.75;;;;;;;16.62;80.91;100975.47;1798374;79;22567;-52
2021/09/11 06:44:20;;;;;;;29.30;14.33;;;;;;;16.71;80.48;100969.50;1758103;81;21454;-52
2021/09/11 06:46:48;;;;;;;28.27;14.13;;;;;;;16.86;80.90;100965.48;1758074;81;21287;-53
2021/09/11 06:49:15;;;;;;;19.32;14.07;;;;;;;17.00;80.99;100967.61;1757868;81;20948;-53
2021/09/11 06:51:43;;;;;;;30.60;14.25;;;;;;;17.15;79.93;100970.10;1758058;81;20905;-53
2021/09/11 06:54:10;;;;;;;31.93;13.83;;;;;;;17.28;79.20;100970.05;1757999;81;20900;-52
2021/09/11 06:56:37;;;;;;;25.05;15.40;;;;;;;17.41;79.03;100966.50;1758081;81;20971;-52
2021/09/11 06:59:04;;;;;;;33.40;16.20;;;;;;;17.59;78.99;100971.93;1758037;81;21289;-52
2021/09/11 07:01:31;;;;;;;32.10;15.68;;;;;;;17.72;77.04;100962.66;1757901;80;20920;-52
2021/09/11 07:03:57;;;;;;;33.33;15.63;;;;;;;17.87;75.86;100974.27;1758354;81;20950;-52
2021/09/11 07:06:24;;;;;;;28.23;17.05;;;;;;;18.00;75.00;100972.47;1757901;80;20968;-52
2021/09/11 07:08:52;;;;;;;29.18;15.68;;;;;;;18.13;75.15;100969.75;1758073;81;20976;-53
2021/09/11 07:11:20;;;;;;;34.60;15.45;;;;;;;18.30;74.64;100974.73;1739190;81;20992;-52
2021/09/11 07:13:47;;;;;;;70.75;15.15;;;;;;;18.46;74.10;100973.17;1757856;81;20924;-53
2021/09/11 07:16:13;;;;;;;76.20;17.73;;;;;;;18.62;74.44;100968.55;1738811;81;20944;-53
2021/09/11 07:18:40;;;;;;;41.40;15.00;;;;;;;18.78;74.94;100974.83;1757860;81;21426;-53
2021/09/11 07:21:07;;;;;;;39.92;14.45;;;;;;;18.94;74.44;100973.67;1757981;81;20921;-52
2021/09/11 07:23:35;;;;;;;42.85;14.93;;;;;;;19.13;73.51;100972.00;1757966;81;21162;-53
2021/09/11 07:26:03;;;;;;;32.05;13.65;;;;;;;19.30;73.25;100965.95;1757864;81;20924;-52
2021/09/11 07:28:29;;;;;;;28.62;12.90;;;;;;;19.51;72.45;100969.36;1757512;81;20977;-53
2021/09/11 07:30:56;;;;;;;52.30;15.23;;;;;;;19.72;72.16;100964.83;1749719;81;20925;-52
2021/09/11 07:33:22;;;;;;;57.93;15.50;;;;;;;19.96;72.07;100973.77;1750112;80;20921;-52
2021/09/11 07:35:48;;;;;;;34.13;16.42;;;;;;;20.16;72.32;100969.30;1749721;81;21114;-52
2021/09/11 07:38:15;;;;;;;37.20;18.95;;;;;;;20.32;71.16;100971.51;1749882;81;20881;-52
2021/09/11 07:40:45;;;;;;;39.13;19.30;;;;;;;20.48;68.46;100968.97;1744096;80;20940;-52
2021/09/11 07:43:12;;;;;;;34.40;19.17;;;;;;;20.67;67.73;100968.84;1736336;82;20897;-54
2021/09/11 07:45:40;;;;;;;31.37;16.50;;;;;;;20.89;67.49;100961.15;1736512;82;20972;-53
2021/09/11 07:48:06;;;;;;;29.77;13.65;;;;;;;21.06;65.82;100958.05;1736214;82;21059;-53
2021/09/11 07:50:36;;;;;;;22.65;12.60;;;;;;;21.23;64.44;100960.61;1736301;82;20960;-53
2021/09/11 07:53:03;;;;;;;19.73;10.70;;;;;;;21.38;63.81;100956.75;1735842;82;21525;-53
2021/09/11 07:55:31;;;;;;;27.58;11.12;;;;;;;21.58;62.90;100956.92;1735815;82;20933;-53
2021/09/11 07:57:58;;;;;;;18.77;12.00;;;;;;;21.84;62.64;100951.11;1735699;82;20972;-53
2021/09/11 08:00:25;;;;;;;22.98;10.43;;;;;;;22.10;61.90;100946.50;1735853;82;21078;-53
2021/09/11 08:02:52;;;;;;;20.72;8.95;;;;;;;22.37;60.83;100946.23;1714627;82;20945;-53
2021/09/11 08:05:19;;;;;;;28.83;10.15;;;;;;;22.62;55.10;100943.45;1739276;82;21521;-53
2021/09/11 08:07:46;;;;;;;26.30;9.78;;;;;;;22.86;54.55;100943.73;1714623;82;21550;-53
2021/09/11 08:10:12;;;;;;;17.27;9.45;;;;;;;23.05;53.43;100947.36;1735868;82;20992;-53
2021/09/11 08:12:39;;;;;;;22.17;9.38;;;;;;;23.22;52.70;100945.41;1735756;82;21139;-53
2021/09/11 08:15:07;;;;;;;17.00;8.50;;;;;;;23.43;49.32;100940.59;1736074;81;21016;-53
2021/09/11 08:17:34;;;;;;;20.25;8.13;;;;;;;23.64;48.80;100939.64;1735709;81;20924;-53
2021/09/11 08:20:04;;;;;;;21.00;8.13;;;;;;;23.90;47.01;100937.55;1735702;82;21000;-53
2021/09/11 08:22:31;;;;;;;22.37;6.83;;;;;;;24.11;46.02;100938.73;1691133;82;20940;-53
2021/09/11 08:24:58;;;;;;;26.80;8.33;;;;;;;24.31;44.69;100932.55;1735848;82;21435;-53
2021/09/11 08:27:25;;;;;;;14.03;7.35;;;;;;;24.51;44.09;100929.87;1735786;82;20977;-53
2021/09/11 08:29:51;;;;;;;26.95;8.50;;;;;;;24.77;45.12;100923.70;1735887;82;20839;-53
2021/09/11 08:32:17;;;;;;;11.57;7.37;;;;;;;25.04;42.67;100913.40;1735848;82;20984;-53
2021/09/11 08:34:44;;;;;;;25.80;9.73;;;;;;;25.25;41.50;100907.86;1736081;82;20937;-53
2021/09/11 08:37:10;;;;;;;24.70;7.45;;;;;;;25.45;42.13;100908.66;1739473;81;20998;-53
2021/09/11 08:39:37;;;;;;;23.57;6.45;;;;;;;25.71;40.65;100908.53;1739625;82;20992;-52
2021/09/11 08:42:04;;;;;;;18.77;6.37;;;;;;;26.01;40.10;100905.82;1752171;81;21010;-53
2021/09/11 08:44:31;;;;;;;27.90;6.78;;;;;;;26.36;39.09;100895.15;1730071;81;21474;-53
2021/09/11 08:46:58;;;;;;;17.20;5.90;;;;;;;26.65;39.59;100897.80;1757542;81;20831;-53
2021/09/11 08:49:24;;;;;;;26.77;6.72;;;;;;;26.89;37.22;100898.14;1757186;81;21119;-53
2021/09/11 08:51:51;;;;;;;17.67;6.15;;;;;;;27.14;36.41;100892.98;1756977;81;20955;-53
2021/09/11 08:54:21;;;;;;;21.82;6.50;;;;;;;27.31;35.12;100892.95;1757537;80;21433;-53
2021/09/11 08:56:50;;;;;;;26.95;6.67;;;;;;;27.42;34.40;100888.07;1757256;81;20956;-53
2021/09/11 08:59:19;;;;;;;57.33;7.83;;;;;;;27.59;37.62;100887.16;1757540;81;21533;-53
2021/09/11 09:02:06;;;;;;;43.38;8.25;;;;;;;27.73;37.08;100889.97;1754047;81;20979;-53
2021/09/11 09:04:55;;;;;;;25.35;7.03;;;;;;;27.74;37.25;100885.87;1757323;81;20993;-54
2021/09/11 09:07:39;;;;;;;22.50;6.40;;;;;;;27.97;38.22;100887.87;1757289;81;21354;-52
2021/09/11 09:10:14;;;;;;;10.03;5.17;;;;;;;28.33;33.54;100882.19;1757521;81;20936;-54
2021/09/11 09:12:44;;;;;;;9.45;5.03;;;;;;;28.61;32.03;100883.75;1757585;80;20976;-53
2021/09/11 09:15:17;;;;;;;14.65;5.92;;;;;;;28.76;33.49;100880.70;1757446;81;21102;-52
2021/09/11 09:17:53;;;;;;;30.48;7.45;;;;;;;28.96;31.71;100873.61;1757711;81;20916;-53
2021/09/11 09:20:26;;;;;;;;;;;;;;;29.15;34.14;100864.77;1760453;81;21469;-53
2021/09/11 09:23:07;;;;;;;25.23;7.15;;;;;;;29.20;36.26;100865.22;1757499;81;20070;-53
2021/09/11 09:25:35;;;;;;;21.50;6.87;;;;;;;29.31;35.17;100861.56;1757441;81;20955;-53
2021/09/11 09:28:07;;;;;;;16.97;6.87;;;;;;;29.27;35.21;100862.80;1757524;81;21143;-53
2021/09/11 09:30:46;;;;;;;8.85;5.53;;;;;;;29.39;34.86;100862.17;1757315;81;20885;-53
2021/09/11 09:33:25;;;;;;;7.55;5.30;;;;;;;29.62;31.34;100863.22;1754438;81;20892;-54
2021/09/11 09:35:52;;;;;;;15.68;6.17;;;;;;;29.81;30.90;100856.51;1757663;81;20968;-52
2021/09/11 09:38:18;;;;;;;18.73;5.50;;;;;;;29.99;30.48;100858.91;1757606;81;20936;-52
2021/09/11 09:40:51;;;;;;;8.10;4.90;;;;;;;30.17;28.08;100856.33;1753396;81;21127;-53
2021/09/11 09:43:34;;;;;;;10.18;4.40;;;;;;;30.22;26.99;100851.41;1735507;82;20933;-53
2021/09/11 09:46:05;;;;;;;11.30;4.70;;;;;;;30.20;28.15;100846.20;1735872;82;20972;-53
2021/09/11 09:48:34;;;;;;;8.43;4.40;;;;;;;30.29;28.51;100841.81;1734484;82;20924;-53
2021/09/11 09:51:07;;;;;;;8.03;4.45;;;;;;;30.37;27.97;100838.41;1735937;82;20981;-53
2021/09/11 09:53:38;;;;;;;14.95;4.30;;;;;;;30.51;28.90;100843.73;1735761;82;21153;-53
2021/09/11 09:56:06;;;;;;;22.73;4.95;;;;;;;30.52;27.89;100840.07;1735662;81;20964;-53
2021/09/11 09:58:34;;;;;;;9.05;4.33;;;;;;;30.54;27.80;100840.76;1735799;82;20968;-52
2021/09/11 10:01:01;;;;;;;10.88;5.35;;;;;;;30.58;29.69;100836.79;1735352;82;20961;-53
2021/09/11 10:03:28;;;;;;;9.78;5.20;;;;;;;30.63;29.72;100839.05;1739531;82;20929;-53
2021/09/11 10:06:04;;;;;;;20.25;5.80;;;;;;;30.71;28.46;100840.97;1736073;82;21542;-53
2021/09/11 10:08:31;;;;;;;15.60;5.95;;;;;;;30.59;30.60;100840.31;1735790;82;21530;-54
2021/09/11 10:11:00;;;;;;;16.97;4.97;;;;;;;30.50;30.40;100844.72;1735659;82;21439;-54
2021/09/11 10:13:28;;;;;;;27.85;5.72;;;;;;;30.37;30.56;100837.89;1691082;82;20999;-53
2021/09/11 10:16:06;;;;;;;25.00;6.28;;;;;;;30.32;30.30;100840.17;1735795;82;20850;-53
2021/09/11 10:18:39;;;;;;;28.67;6.33;;;;;;;30.29;30.60;100837.81;1735673;82;21139;-53
2021/09/11 10:21:23;;;;;;;17.60;5.78;;;;;;;30.20;31.22;100838.71;1735681;82;20925;-53
2021/09/11 10:24:00;;;;;;;24.23;5.47;;;;;;;30.30;30.02;100834.15;1735662;82;20921;-53
2021/09/11 10:26:47;;;;;;;21.60;5.67;;;;;;;30.26;28.95;100834.11;1735708;82;20885;-53
2021/09/11 10:29:49;;;;;;;27.98;5.90;;;;;;;30.13;29.93;100837.60;1729460;82;21499;-53
2021/09/11 10:32:37;;;;;;;14.58;5.25;;;;;;;30.18;28.68;100836.66;1735469;81;21126;-53
2021/09/11 10:35:19;;;;;;;16.52;5.75;;;;;;;30.10;29.14;100825.41;1735625;82;20988;-53
2021/09/11 10:37:50;;;;;;;14.93;4.45;;;;;;;29.99;28.29;100826.89;1735797;82;21003;-53
2021/09/11 10:40:41;;;;;;;26.30;5.40;;;;;;;29.94;29.90;100816.17;1739868;82;20977;-53
2021/09/11 10:43:14;;;;;;;22.70;5.35;;;;;;;29.89;28.29;100816.25;1715041;82;20932;-54
2021/09/11 10:45:58;;;;;;;6.40;4.53;;;;;;;29.92;28.33;100815.48;1735985;82;21414;-53
2021/09/11 10:48:49;;;;;;;27.70;5.87;;;;;;;29.93;29.35;100813.16;1739381;82;21371;-53
2021/09/11 10:51:26;;;;;;;30.85;5.87;;;;;;;30.04;27.72;100809.49;1735781;82;20921;-53
2021/09/11 10:54:22;;;;;;;19.35;5.20;;;;;;;30.15;29.14;100807.60;1735697;82;20973;-53
2021/09/11 10:56:52;;;;;;;21.37;4.72;;;;;;;30.19;28.17;100796.97;1736073;81;20925;-54
2021/09/11 10:59:27;;;;;;;14.35;4.30;;;;;;;30.14;28.48;100791.25;1735654;81;21110;-54
2021/09/11 11:02:05;;;;;;;68.12;6.70;;;;;;;30.04;27.88;100791.30;1735629;82;20878;-54
2021/09/11 11:04:51;;;;;;;22.65;5.50;;;;;;;29.81;28.75;100792.50;1736185;82;20929;-53
2021/09/11 11:07:30;;;;;;;12.85;4.83;;;;;;;29.68;29.74;100793.30;1739499;82;21503;-54
2021/09/11 11:10:05;;;;;;;13.90;4.75;;;;;;;29.40;27.94;100794.55;1735753;82;21495;-54
2021/09/11 11:12:41;;;;;;;8.80;4.42;;;;;;;29.01;29.45;100790.11;1735691;82;20937;-54
2021/09/11 11:15:23;;;;;;;10.63;4.70;;;;;;;29.03;31.49;100784.15;1735709;81;20968;-54
2021/09/11 11:17:50;;;;;;;12.63;4.62;;;;;;;29.11;30.32;100782.11;1732911;82;20985;-54
2021/09/11 11:20:24;;;;;;;8.70;4.75;;;;;;;29.21;30.93;100780.30;1735729;82;20969;-53